createdAt,value
2022-07-26T00:00:37.763Z,6.53
2022-07-26T00:10:43.016Z,6.63
2022-07-26T00:20:48.577Z,7.45
2022-07-26T00:30:51.343Z,6.53
2022-07-26T00:40:54.762Z,7.10
2022-07-26T00:50:59.117Z,6.85
2022-07-26T01:01:02.613Z,6.45
2022-07-26T01:11:05.701Z,10.52
2022-07-26T01:21:13.665Z,9.77
2022-07-26T01:31:16.663Z,10.20
2022-07-26T01:41:37.411Z,11.45
2022-07-26T01:51:43.573Z,8.82
2022-07-26T02:01:48.670Z,7.47
2022-07-26T02:11:50.805Z,8.15
2022-07-26T02:21:56.313Z,7.47
2022-07-26T02:32:01.192Z,8.98
2022-07-26T02:42:05.862Z,7.50
2022-07-26T02:52:10.821Z,9.43
2022-07-26T03:02:20.316Z,14.02
2022-07-26T03:22:27.759Z,8.13
2022-07-26T03:32:39.462Z,6.93
2022-07-26T03:42:44.373Z,8.65
2022-07-26T03:52:49.796Z,10.93
2022-07-26T04:02:52.083Z,11.00
2022-07-26T04:12:56.355Z,7.03
2022-07-26T04:22:58.449Z,7.22
2022-07-26T04:33:02.772Z,7.22
2022-07-26T04:43:10.206Z,12.52
2022-07-26T04:53:20.212Z,11.00
2022-07-26T05:03:25.468Z,7.63
2022-07-26T05:13:32.425Z,6.95
2022-07-26T05:23:34.528Z,7.20
2022-07-26T05:33:39.906Z,6.30
2022-07-26T05:43:42.302Z,6.65
2022-07-26T05:53:47.005Z,5.85
2022-07-26T06:03:53.983Z,7.13
2022-07-26T06:13:56.740Z,7.25
2022-07-26T06:23:59.090Z,10.05
2022-07-26T06:34:01.196Z,7.03
2022-07-26T06:44:03.519Z,8.10
2022-07-26T06:54:08.056Z,6.03
2022-07-26T07:04:14.269Z,5.65
2022-07-26T07:14:19.140Z,5.40
2022-07-26T07:24:21.700Z,5.53
2022-07-26T07:34:24.843Z,11.48
2022-07-26T07:44:29.099Z,5.35
2022-07-26T07:54:31.831Z,6.40
2022-07-26T08:04:36.809Z,3.63
2022-07-26T08:14:38.890Z,4.65
2022-07-26T08:24:47.022Z,5.43
2022-07-26T08:34:51.547Z,4.70
2022-07-26T08:44:53.660Z,4.40
2022-07-26T08:54:58.899Z,4.80
2022-07-26T09:05:07.153Z,5.18
2022-07-26T09:15:21.639Z,4.50
2022-07-26T09:25:24.914Z,4.43
2022-07-26T09:35:52.281Z,5.28
2022-07-26T09:46:05.821Z,6.50
2022-07-26T09:56:09.689Z,5.45
2022-07-26T10:06:11.997Z,7.15
2022-07-26T10:16:33.334Z,5.28
2022-07-26T10:26:37.283Z,7.35
2022-07-26T10:36:40.093Z,6.20
2022-07-26T10:47:08.377Z,5.63
2022-07-26T10:57:12.884Z,6.38
2022-07-26T11:07:14.916Z,5.30
2022-07-26T11:17:29.079Z,5.68
2022-07-26T11:27:33.378Z,5.07
2022-07-26T11:37:35.623Z,5.60
2022-07-26T11:47:40.066Z,6.18
2022-07-26T11:57:42.310Z,6.03
2022-07-26T12:07:58.049Z,6.03
2022-07-26T12:18:02.171Z,7.53
2022-07-26T12:28:06.998Z,6.95
2022-07-26T12:38:17.009Z,10.07
2022-07-26T12:48:19.157Z,9.05
2022-07-26T12:58:25.691Z,10.25
2022-07-26T13:08:28.691Z,14.83
2022-07-26T13:18:30.914Z,12.82
2022-07-26T13:28:37.332Z,15.18
2022-07-26T13:38:42.910Z,15.85
2022-07-26T13:49:00.201Z,17.10
2022-07-26T13:59:03.202Z,16.13
2022-07-26T14:09:10.746Z,16.67
2022-07-26T14:19:14.249Z,14.93
2022-07-26T14:29:21.459Z,12.95
2022-07-26T14:39:23.485Z,11.68
2022-07-26T14:49:27.950Z,13.32
2022-07-26T14:59:32.952Z,10.50
2022-07-26T15:09:34.954Z,12.00
2022-07-26T15:19:37.226Z,9.57
2022-07-26T15:29:39.354Z,10.45
2022-07-26T15:39:41.746Z,10.93
2022-07-26T15:49:44.853Z,8.40
2022-07-26T15:59:46.994Z,4.68
2022-07-26T16:09:49.152Z,5.85
2022-07-26T16:19:51.893Z,6.22
2022-07-26T16:29:56.200Z,7.38
2022-07-26T16:40:08.944Z,8.07
2022-07-26T16:50:13.543Z,7.88
2022-07-26T17:00:30.317Z,9.57
2022-07-26T17:10:34.596Z,5.30
2022-07-26T17:20:39.204Z,7.50
2022-07-26T17:30:46.224Z,7.97
2022-07-26T17:41:06.258Z,8.68
2022-07-26T17:51:17.616Z,10.77
2022-07-26T18:01:22.157Z,6.78
2022-07-26T18:11:34.988Z,8.20
2022-07-26T18:21:45.344Z,6.95
2022-07-26T18:31:51.008Z,7.65
2022-07-26T18:41:55.631Z,9.65
2022-07-26T18:52:08.519Z,9.30
2022-07-26T19:02:13.331Z,7.95
2022-07-26T19:12:20.883Z,5.88
2022-07-26T19:22:23.059Z,9.40
2022-07-26T19:32:29.045Z,7.95
2022-07-26T19:42:33.808Z,7.25
2022-07-26T19:52:40.837Z,12.40
2022-07-26T20:02:45.540Z,7.95
2022-07-26T20:12:51.387Z,11.98
2022-07-26T20:22:53.433Z,10.98
2022-07-26T20:32:57.713Z,15.90
2022-07-26T20:43:18.633Z,12.82
2022-07-26T20:53:23.919Z,13.30
2022-07-26T21:03:29.610Z,9.32
2022-07-26T21:13:45.899Z,9.10
2022-07-26T21:23:51.371Z,12.65
2022-07-26T21:33:56.031Z,12.18
2022-07-26T21:43:59.861Z,10.38
2022-07-26T21:54:16.196Z,10.70
2022-07-26T22:04:27.816Z,9.65
2022-07-26T22:14:30.041Z,11.05
2022-07-26T22:24:35.180Z,15.73
2022-07-26T22:34:37.913Z,11.80
2022-07-26T22:44:42.109Z,12.85
2022-07-26T22:54:46.872Z,10.30
2022-07-26T23:04:51.410Z,10.48
2022-07-26T23:14:57.447Z,11.30
2022-07-26T23:25:01.928Z,9.93
2022-07-26T23:35:07.136Z,15.30
2022-07-26T23:45:09.486Z,13.05
2022-07-26T23:55:14.326Z,12.07
